Relevés horaires Beauvechain (Belgique)


Relevés horaires à Beauvechain - Mardi 16 Août 2016
Heure UTC1 Température [°C] Vent [km/h] Hum. [%] Pres.4 [hPa] Visi. [Km] Nébu. [octa] Préc.5 [mm] Cond.
2m. Res. Ros. Dir.2 Vit. Moy. Raf.3
23:00 13.5 13.5 11.2 NE 5.6 5.6 5.6 86 1016.1(0.0/3h) 20 -- -- --
22:00 14.3 14.3 11.5 NE 3.7 3.7 5.6 83 1016.2(0.2/3h) 20 -- -- --
21:00 15.1 15.1 11.3 NE 3.7 3.7 5.6 78 1016.1(0.1/3h) 20 -- -- --
20:00 16.5 16.5 11.6 NE 3.7 5.6 5.6 73 1016(0.0/3h) 20 -- -- --
19:00 18.1 18.1 11.8 NE 3.7 5.6 7.4 67 1015.7(-0.6/3h) 20 -- -- --
18:00 21.1 21.1 11.9 NE 5.6 0.0 0.0 56 1015.7(-1.0/3h) 20 -- 0/0h
--
17:00 22.5 22.5 11.9 NE 7.4 7.4 11.1 51 1015.7(-1.3/3h) 20 -- -- --
16:00 22.9 22.9 12.2 NE 7.4 7.4 11.1 51 1016.2(-1.4/3h) 17 -- -- --
15:00 23.4 23.4 12.9 NE 7.4 0.0 0.0 52 1016.6(-1.3/3h) 20 1/8 -- --
14:00 22.8 22.8 12.8 NNE 7.4 7.4 13.0 53 1017.1(-1.1/3h) 20 2/8 -- --
13:00 22.5 22.5 12.7 NE 7.4 9.3 13.0 54 1017.7(-0.8/3h) 20 2/8 -- --
12:00 21.3 21.3 12.3 ENE 7.4 9.3 14.8 56 1018.1(-0.6/3h) 20 3/8 0/0h
--
11:00 21.1 21.1 12.9 NE 9.3 9.3 13.0 59 1018.2(-0.7/3h) 20 5/8 -- --
10:00 19.2 19.2 12.1 NE 7.4 7.4 11.1 63 1018.7(-0.6/3h) 20 5/8 -- --
09:00 17.7 17.7 12.5 NE 5.6 7.4 9.3 72 1019(-0.6/3h) 15 5/8 0/0h
--
08:00 15.6 15.6 11.5 NE 5.6 5.6 9.3 77 1019.3(-0.3/3h) 9 5/8 -- --
07:00 14.1 14.1 11.9 NE 5.6 5.6 7.4 87 1019.7(-0.2/3h) 7 5/8 -- --
06:00 12.5 12.5 11.1 NE 3.7 5.6 9.3 91 1019.8(-0.3/3h) 7 3/8 0/0h
--
05:00 11.3 11.3 10.1 ENE 3.7 3.7 3.7 92 1020(-0.6/3h) 7 1/8 -- --
04:00 10.8 10.8 10.0 NE 3.7 3.7 5.6 95 1020.1(-0.9/3h) 10 1/8 -- --
03:00 11.3 11.3 10.1 NE 3.7 0.0 0.0 92 1020.3(-0.8/3h) 16 -- -- --
02:00 11.6 11.6 10.0 NE 3.7 3.7 3.7 90 1020.7(-0.9/3h) 20 -- -- --
01:00 12.4 12.4 10.2 NE 3.7 3.7 5.6 86 1020.8(-0.8/3h) 20 -- -- --
00:00 12.7 12.7 10.3 ENE 3.7 0.0 0.0 85 1021.2(-0.6/3h) 20 -- 0/0h
--

1 Coordinated Universal Time. Actuellement il est 21:00 locale et 20:00 UTC.

2 Le vent souffle depuis la direction indiquée vers la direction oposée.

3 Les rafales max. sont disponible 40 min après l'heure du relevé.

4 Pour les stations d'altitude (plus de 600m) le géopotentiel du niveau le plus proche de la pression obligatoire est indiqué.

5 Les stations disposant d'un diffuseur peuvent indiquer "trace". Cela signifie que des précipitations ont touchés le sol mais que la quantité est inférieure à 0.1 mm.

Récapitulatif de la journée
Température [°C] Vent [km/h] Ensoleillement4 [h] Precipitations totale5 [mm] Pression [Hpa]
Min1 Max.2 Moy.3 Max. Min Max.
10.7 23.6 5 14.8 0 h 0 min 0 1015.7 1021.2

1 Température minimale relevée entre 18:00 UTC la veille et 18:00 UTC le jour donné.

2 Température maximale relevée entre 06:00 UTC le jour donné et 06:00 UTC le lendemain.

3 Vent moyen de la journée basé sur les relevés horaires.

4 Ensoleillement en heures relevé entre 06:00 UTC la veille et 06:00 UTC le jour donné.

5 Précipitations totales tombées entre 06:00 UTC la jour donné et 06:00 UTC le lendemain.

Graphiques horaires